createdAt,value
2023-05-17T00:01:10.551Z,0.8
2023-05-17T00:02:26.748Z,0.8
2023-05-17T00:03:42.924Z,0.9
2023-05-17T00:04:58.249Z,1
2023-05-17T00:06:14.394Z,0.9
2023-05-17T00:07:30.567Z,1
2023-05-17T00:08:46.825Z,0.7
2023-05-17T00:10:02.959Z,1.1
2023-05-17T00:11:19.152Z,0.9
2023-05-17T00:12:35.333Z,1
2023-05-17T00:13:51.523Z,1
2023-05-17T00:15:07.722Z,0.9
2023-05-17T00:16:23.974Z,1
2023-05-17T00:17:40.105Z,1.1
2023-05-17T00:18:56.308Z,1
2023-05-17T00:20:12.495Z,0.9
2023-05-17T00:21:27.734Z,1.2
2023-05-17T00:22:43.932Z,1
2023-05-17T00:24:00.119Z,0.8
2023-05-17T00:25:16.298Z,0.9
2023-05-17T00:26:32.489Z,1
2023-05-17T00:27:48.697Z,1
2023-05-17T00:29:04.870Z,1.2
2023-05-17T00:30:21.075Z,0.9
2023-05-17T00:31:37.264Z,0.9
2023-05-17T00:32:53.443Z,1.1
2023-05-17T00:34:09.648Z,0.8
2023-05-17T00:35:25.838Z,1.1
2023-05-17T00:36:42.016Z,0.9
2023-05-17T00:37:57.260Z,0.8
2023-05-17T00:39:13.455Z,1
2023-05-17T00:40:29.640Z,1
2023-05-17T00:41:45.836Z,1
2023-05-17T00:43:02.090Z,1.1
2023-05-17T00:44:18.231Z,0.9
2023-05-17T00:45:34.415Z,1
2023-05-17T00:46:50.605Z,0.8
2023-05-17T00:48:06.805Z,1
2023-05-17T00:50:39.172Z,0.9
2023-05-17T00:51:55.362Z,0.9
2023-05-17T00:53:11.569Z,0.9
2023-05-17T00:54:26.861Z,1
2023-05-17T00:55:42.996Z,1.1
2023-05-17T00:56:59.187Z,1
2023-05-17T00:58:15.371Z,0.9
2023-05-17T00:59:31.566Z,1
2023-05-17T01:00:47.752Z,0.9
2023-05-17T01:02:04.010Z,0.8
2023-05-17T01:03:20.139Z,1.3
2023-05-17T01:04:36.338Z,1
2023-05-17T01:05:52.522Z,0.8
2023-05-17T01:07:08.721Z,0.9
2023-05-17T01:08:24.902Z,0.9
2023-05-17T01:09:41.093Z,1
2023-05-17T01:10:56.347Z,1
2023-05-17T01:12:12.525Z,1.3
2023-05-17T01:13:28.721Z,1
2023-05-17T01:14:44.919Z,1
2023-05-17T01:16:01.103Z,0.9
2023-05-17T01:17:17.289Z,1.1
2023-05-17T01:18:33.482Z,1.1
2023-05-17T01:19:49.673Z,1.1
2023-05-17T01:21:05.930Z,1
2023-05-17T01:22:22.054Z,1.2
2023-05-17T01:23:38.264Z,1
2023-05-17T01:24:54.505Z,1
2023-05-17T01:26:10.645Z,1
2023-05-17T01:27:25.936Z,0.8
2023-05-17T01:28:42.065Z,1
2023-05-17T01:29:58.251Z,1
2023-05-17T01:31:14.439Z,0.9
2023-05-17T01:32:30.635Z,0.9
2023-05-17T01:33:46.827Z,1.2
2023-05-17T01:35:03.019Z,0.8
2023-05-17T01:36:19.208Z,0.9
2023-05-17T01:37:35.408Z,1
2023-05-17T01:38:51.593Z,1
2023-05-17T01:40:07.795Z,0.9
2023-05-17T01:41:23.986Z,0.9
2023-05-17T01:42:40.173Z,1.2
2023-05-17T01:43:55.473Z,0.9
2023-05-17T01:45:11.607Z,1
2023-05-17T01:46:27.827Z,1
2023-05-17T01:47:44.024Z,0.8
2023-05-17T01:49:00.212Z,1.1
2023-05-17T01:50:16.397Z,1.1
2023-05-17T01:51:32.584Z,1
2023-05-17T01:52:48.771Z,1.1
2023-05-17T01:54:04.965Z,1.1
2023-05-17T01:55:21.154Z,0.9
2023-05-17T01:56:37.358Z,0.9
2023-05-17T01:57:53.556Z,1.1
2023-05-17T01:59:09.746Z,1.3
2023-05-17T02:00:24.979Z,1
2023-05-17T02:01:41.169Z,0.8
2023-05-17T02:02:57.363Z,1
2023-05-17T02:04:13.557Z,1.1
2023-05-17T02:05:29.735Z,0.9
2023-05-17T02:06:45.939Z,0.9
2023-05-17T02:08:02.123Z,1.1
2023-05-17T02:09:18.308Z,1
2023-05-17T02:10:34.541Z,1
2023-05-17T02:11:50.694Z,0.9
2023-05-17T02:13:06.883Z,1
2023-05-17T02:14:23.085Z,1
2023-05-17T02:15:39.273Z,1
2023-05-17T02:16:55.591Z,1
2023-05-17T02:18:11.813Z,0.8
2023-05-17T02:19:27.980Z,1
2023-05-17T02:20:44.156Z,1
2023-05-17T02:22:00.357Z,0.9
2023-05-17T02:23:16.535Z,1
2023-05-17T02:24:32.741Z,0.9
2023-05-17T02:25:48.928Z,0.9
2023-05-17T02:27:05.122Z,1
2023-05-17T02:28:21.305Z,1
2023-05-17T02:29:37.493Z,1.2
2023-05-17T02:30:53.698Z,1
2023-05-17T02:32:09.883Z,1.1
2023-05-17T02:33:25.127Z,1.1
2023-05-17T02:34:41.320Z,1
2023-05-17T02:35:57.513Z,1
2023-05-17T02:38:29.897Z,1.1
2023-05-17T02:39:46.084Z,1.2
2023-05-17T02:41:02.307Z,1
2023-05-17T02:42:18.469Z,1
2023-05-17T02:43:34.647Z,1.1
2023-05-17T02:44:50.842Z,1.2
2023-05-17T02:47:23.236Z,1
2023-05-17T02:48:39.414Z,0.9
2023-05-17T02:49:54.668Z,0.8
2023-05-17T02:51:10.847Z,1.1
2023-05-17T02:52:27.052Z,0.9
2023-05-17T02:53:43.231Z,1
2023-05-17T02:54:59.427Z,1.1
2023-05-17T02:56:15.622Z,1.2
2023-05-17T02:57:31.808Z,1
2023-05-17T02:58:47.989Z,1.1
2023-05-17T03:00:04.182Z,1
2023-05-17T03:01:20.383Z,1.1
2023-05-17T03:02:36.581Z,1.1
2023-05-17T03:05:08.958Z,1.1
2023-05-17T03:06:24.206Z,1.1
2023-05-17T03:07:40.425Z,1.1
2023-05-17T03:08:56.586Z,1
2023-05-17T03:10:12.775Z,1
2023-05-17T03:11:28.969Z,1.1
2023-05-17T03:12:45.149Z,1
2023-05-17T03:14:01.342Z,1
2023-05-17T03:15:17.544Z,1
2023-05-17T03:16:33.724Z,1.1
2023-05-17T03:17:49.928Z,1
2023-05-17T03:19:06.103Z,1.1
2023-05-17T03:20:22.298Z,0.9
2023-05-17T03:21:38.485Z,1
2023-05-17T03:22:54.680Z,1
2023-05-17T03:24:09.915Z,0.9
2023-05-17T03:26:42.318Z,1
2023-05-17T03:27:58.502Z,1.2
2023-05-17T03:29:14.690Z,0.9
2023-05-17T03:30:30.892Z,1.1
2023-05-17T03:31:47.070Z,1
2023-05-17T03:33:03.256Z,0.9
2023-05-17T03:34:19.494Z,1.2
2023-05-17T03:35:35.656Z,1.1
2023-05-17T03:36:51.835Z,1.2
2023-05-17T03:38:08.030Z,1.1
2023-05-17T03:39:24.217Z,0.9
2023-05-17T03:40:39.467Z,1.1
2023-05-17T03:41:55.652Z,1.1
2023-05-17T03:43:11.853Z,1.1
2023-05-17T03:44:28.043Z,1.1
2023-05-17T03:45:44.228Z,1
2023-05-17T03:47:00.414Z,1.1
2023-05-17T03:49:32.802Z,1.1
2023-05-17T03:50:48.984Z,1
2023-05-17T03:52:05.177Z,1.3
2023-05-17T03:53:21.383Z,1.1
2023-05-17T03:54:37.564Z,1.1
2023-05-17T03:55:53.749Z,1
2023-05-17T03:57:09.037Z,1.2
2023-05-17T03:58:25.195Z,1
2023-05-17T03:59:41.390Z,1.2
2023-05-17T04:00:57.573Z,0.9
2023-05-17T04:02:13.774Z,1.1
2023-05-17T04:03:29.953Z,1
2023-05-17T04:04:46.185Z,1
2023-05-17T04:06:02.344Z,1
2023-05-17T04:07:18.569Z,1
2023-05-17T04:08:34.722Z,1.1
2023-05-17T04:09:50.907Z,0.9
2023-05-17T04:11:07.112Z,1
2023-05-17T04:12:23.335Z,1
2023-05-17T04:13:38.539Z,1.1
2023-05-17T04:14:54.737Z,1.2
2023-05-17T04:16:10.910Z,0.9
2023-05-17T04:17:27.103Z,1.1
2023-05-17T04:18:43.303Z,1.1
2023-05-17T04:21:14.748Z,1.1
2023-05-17T04:22:30.002Z,1
2023-05-17T04:23:46.200Z,1.3
2023-05-17T04:25:02.434Z,1
2023-05-17T04:26:18.579Z,1
2023-05-17T04:27:34.783Z,1.2
2023-05-17T04:28:50.979Z,1.1
2023-05-17T04:30:07.154Z,1.1
2023-05-17T04:31:23.392Z,1.2
2023-05-17T04:32:39.549Z,1
2023-05-17T04:33:55.730Z,1
2023-05-17T04:35:11.966Z,0.9
2023-05-17T04:36:28.128Z,1.1
2023-05-17T04:37:44.308Z,1.1
2023-05-17T04:38:59.554Z,1.2
2023-05-17T04:40:15.747Z,1.1
2023-05-17T04:41:31.932Z,1.1
2023-05-17T04:42:48.124Z,1.1
2023-05-17T04:44:04.317Z,1
2023-05-17T04:45:20.517Z,1
2023-05-17T04:47:52.888Z,1.1
2023-05-17T04:49:09.071Z,1.1
2023-05-17T04:50:25.269Z,0.9
2023-05-17T04:52:57.661Z,1
2023-05-17T04:54:13.843Z,1
2023-05-17T04:55:29.079Z,1.2
2023-05-17T04:56:45.281Z,1.1
2023-05-17T04:59:17.657Z,1
2023-05-17T05:00:34.008Z,1
2023-05-17T05:01:50.314Z,0.9
2023-05-17T05:03:06.515Z,1
2023-05-17T05:04:22.705Z,1.2
2023-05-17T05:05:38.887Z,1
2023-05-17T05:08:11.277Z,0.9
2023-05-17T05:09:27.457Z,1.2
2023-05-17T05:10:43.656Z,1
2023-05-17T05:11:59.850Z,0.9
2023-05-17T05:13:16.082Z,1.1
2023-05-17T05:15:48.421Z,1
2023-05-17T05:19:36.071Z,1.2
2023-05-17T05:20:51.352Z,1
2023-05-17T05:22:07.537Z,1.2
2023-05-17T05:23:22.788Z,0.9
2023-05-17T05:24:38.960Z,1
2023-05-17T05:25:55.165Z,1.1
2023-05-17T05:27:11.344Z,1
2023-05-17T05:28:27.547Z,1.1
2023-05-17T05:29:43.741Z,1.1
2023-05-17T05:30:59.933Z,1.2
2023-05-17T05:32:16.126Z,1.1
2023-05-17T05:33:31.392Z,0.9
2023-05-17T05:34:46.618Z,2.2
2023-05-17T05:36:02.811Z,2.4
2023-05-17T05:37:19.016Z,2.5
2023-05-17T05:38:35.203Z,2.6
2023-05-17T05:39:51.389Z,3.5
2023-05-17T05:41:07.576Z,3.8
2023-05-17T05:42:23.783Z,3.5
2023-05-17T05:43:39.975Z,4.1
2023-05-17T05:44:56.165Z,4.2
2023-05-17T05:46:11.420Z,4.3
2023-05-17T05:48:42.866Z,4.3
2023-05-17T05:49:59.053Z,4.6
2023-05-17T05:51:15.244Z,4.6
2023-05-17T05:52:31.439Z,3.9
2023-05-17T05:53:47.628Z,4.3
2023-05-17T05:55:03.813Z,4.3
2023-05-17T05:56:19.998Z,4.1
2023-05-17T05:57:36.192Z,3.3
2023-05-17T05:58:52.434Z,4.1
2023-05-17T06:00:08.587Z,3.7
2023-05-17T06:01:24.767Z,3.7
2023-05-17T06:02:40.958Z,4
2023-05-17T06:03:56.205Z,4.3
2023-05-17T06:05:12.398Z,4.7
2023-05-17T06:06:28.585Z,4.3
2023-05-17T06:07:44.783Z,4.4
2023-05-17T06:09:00.965Z,5.3
2023-05-17T06:10:17.153Z,4.3
2023-05-17T06:11:33.345Z,4.4
2023-05-17T06:12:49.539Z,4.6
2023-05-17T06:14:05.733Z,4.5
2023-05-17T06:15:21.924Z,4.6
2023-05-17T06:16:38.131Z,4.2
2023-05-17T06:17:54.304Z,4.4
2023-05-17T06:19:10.511Z,3.8
2023-05-17T06:20:25.740Z,3.7
2023-05-17T06:21:41.939Z,4.2
2023-05-17T06:22:58.129Z,4.1
2023-05-17T06:24:14.321Z,4.1
2023-05-17T06:25:30.514Z,3.6
2023-05-17T06:26:46.703Z,3.5
2023-05-17T06:28:02.882Z,4.1
2023-05-17T06:29:19.127Z,3.8
2023-05-17T06:30:35.268Z,3.9
2023-05-17T06:31:51.468Z,4
2023-05-17T06:33:07.654Z,3.4
2023-05-17T06:34:23.838Z,3.5
2023-05-17T06:35:40.044Z,3.5
2023-05-17T06:36:55.324Z,4
2023-05-17T06:39:27.668Z,3.9
2023-05-17T06:40:43.851Z,3.8
2023-05-17T06:42:00.055Z,3.8
2023-05-17T06:43:16.235Z,3.9
2023-05-17T06:44:32.427Z,3.6
2023-05-17T06:45:48.622Z,3.8
2023-05-17T06:47:04.803Z,4
2023-05-17T06:48:21.011Z,4
2023-05-17T06:49:37.190Z,4.5
2023-05-17T06:50:53.392Z,3.8
2023-05-17T06:52:09.572Z,4
2023-05-17T06:53:24.814Z,4.6
2023-05-17T06:54:41.013Z,4.4
2023-05-17T06:55:57.245Z,4.4
2023-05-17T06:58:29.586Z,4.1
2023-05-17T06:59:45.772Z,4.2
2023-05-17T07:01:01.960Z,4.2
2023-05-17T07:02:18.147Z,4.3
2023-05-17T07:03:34.394Z,4.7
2023-05-17T07:04:50.548Z,4.1
2023-05-17T07:06:06.742Z,4.3
2023-05-17T07:07:22.969Z,4.2
2023-05-17T07:08:39.119Z,4
2023-05-17T07:09:54.359Z,4.2
2023-05-17T07:11:10.553Z,3.9
2023-05-17T07:12:26.740Z,4.9
2023-05-17T07:13:42.921Z,3.8
2023-05-17T07:14:59.113Z,4.1
2023-05-17T07:16:15.311Z,4.6
2023-05-17T07:17:31.505Z,4.4
2023-05-17T07:18:47.695Z,4.6
2023-05-17T07:20:03.893Z,4.3
2023-05-17T07:21:20.085Z,4.2
2023-05-17T07:22:36.272Z,4.4
2023-05-17T07:23:52.464Z,4.3
2023-05-17T07:25:08.656Z,4.7
2023-05-17T07:26:23.898Z,4.2
2023-05-17T07:27:40.082Z,3.4
2023-05-17T07:28:56.269Z,3.8
2023-05-17T07:30:12.462Z,3.7
2023-05-17T07:31:28.666Z,3.8
2023-05-17T07:32:44.848Z,4.1
2023-05-17T07:34:01.087Z,4.2
2023-05-17T07:35:17.236Z,4
2023-05-17T07:36:33.428Z,4
2023-05-17T07:37:49.609Z,4.6
2023-05-17T07:39:05.812Z,5
2023-05-17T07:40:21.995Z,3.9
2023-05-17T07:41:38.236Z,3.7
2023-05-17T07:42:54.377Z,3.7
2023-05-17T07:44:09.616Z,3.7
2023-05-17T07:45:25.858Z,4.2
2023-05-17T07:46:41.997Z,4.1
2023-05-17T07:47:58.192Z,3.5
2023-05-17T07:49:14.394Z,3.1
2023-05-17T07:50:30.580Z,3.5
2023-05-17T07:51:46.770Z,3.1
2023-05-17T07:53:03.008Z,2.8
2023-05-17T07:55:35.340Z,2.8
2023-05-17T07:56:51.532Z,3.1
2023-05-17T07:58:07.721Z,3
2023-05-17T07:59:23.919Z,3.3
2023-05-17T08:00:39.166Z,2.7
2023-05-17T08:01:55.356Z,2.6
2023-05-17T08:03:11.535Z,2.9
2023-05-17T08:04:27.780Z,3.1
2023-05-17T08:05:43.934Z,3
2023-05-17T08:07:00.116Z,3
2023-05-17T08:08:16.308Z,2.9
2023-05-17T08:09:32.490Z,2.5
2023-05-17T08:10:48.693Z,2.8
2023-05-17T08:12:04.930Z,2.8
2023-05-17T08:15:53.451Z,2.9
2023-05-17T08:17:08.724Z,2.9
2023-05-17T08:18:23.972Z,2.8
2023-05-17T08:19:40.147Z,4.7
2023-05-17T08:20:56.352Z,4.9
2023-05-17T08:22:12.545Z,4.8
2023-05-17T08:23:28.724Z,4.3
2023-05-17T08:24:44.923Z,3.9
2023-05-17T08:26:01.119Z,4
2023-05-17T08:27:17.307Z,4.1
2023-05-17T08:28:33.499Z,3.9
2023-05-17T08:29:48.770Z,4.3
2023-05-17T08:31:04.002Z,3.2
2023-05-17T08:32:20.205Z,3.3
2023-05-17T08:33:36.389Z,3.3
2023-05-17T08:34:52.586Z,3.2
2023-05-17T08:36:08.771Z,2.8
2023-05-17T08:37:24.033Z,3.2
2023-05-17T08:38:40.221Z,2.9
2023-05-17T08:39:56.424Z,2.9
2023-05-17T08:41:12.607Z,3.2
2023-05-17T08:42:28.808Z,2.9
2023-05-17T08:43:44.998Z,2.7
2023-05-17T08:45:01.188Z,2.3
2023-05-17T08:46:17.371Z,2.9
2023-05-17T08:47:33.572Z,2.9
2023-05-17T08:48:49.760Z,2.8
2023-05-17T08:50:05.997Z,3
2023-05-17T08:51:22.129Z,2.7
2023-05-17T08:52:38.323Z,1.9
2023-05-17T08:53:53.564Z,2.4
2023-05-17T08:55:09.000Z,2.1
2023-05-17T08:56:25.958Z,2.4
2023-05-17T08:58:58.338Z,2
2023-05-17T09:00:14.521Z,1.5
2023-05-17T09:01:30.769Z,1.9
2023-05-17T09:04:03.105Z,1.7
2023-05-17T09:07:51.677Z,1.6
2023-05-17T09:12:55.518Z,1.6
2023-05-17T09:14:10.800Z,1.6
2023-05-17T09:15:26.037Z,1.5
2023-05-17T09:16:42.229Z,1.5
2023-05-17T09:17:58.410Z,1.4
2023-05-17T09:19:14.613Z,1.4
2023-05-17T09:20:30.794Z,1.3
2023-05-17T09:21:46.981Z,2.5
2023-05-17T09:26:51.744Z,2.9
2023-05-17T09:28:07.996Z,3.2
2023-05-17T09:29:24.133Z,3
2023-05-17T09:31:55.608Z,3.2
2023-05-17T09:33:10.878Z,3.3
2023-05-17T09:35:42.291Z,3.3
2023-05-17T09:36:58.488Z,3.3
2023-05-17T09:38:14.692Z,3.5
2023-05-17T09:39:30.866Z,4
2023-05-17T09:42:03.257Z,3.5
2023-05-17T09:44:35.630Z,3.9
2023-05-17T09:47:08.013Z,3.8
2023-05-17T09:48:24.210Z,4
2023-05-17T09:49:40.396Z,4
2023-05-17T09:50:55.638Z,4.2
2023-05-17T09:54:44.216Z,3.5
2023-05-17T09:56:00.411Z,3.8
2023-05-17T09:58:32.846Z,3.6
2023-05-17T09:59:48.987Z,3.7
2023-05-17T10:01:05.181Z,3.6
2023-05-17T10:04:53.752Z,3.3
2023-05-17T10:07:26.127Z,3.4
2023-05-17T10:09:58.520Z,3.2
2023-05-17T10:11:14.705Z,3.8
2023-05-17T10:12:29.936Z,3.6
2023-05-17T10:13:46.146Z,3.2
2023-05-17T10:16:18.520Z,3.8
2023-05-17T10:17:34.766Z,4
2023-05-17T10:18:50.899Z,3.4
2023-05-17T10:20:07.099Z,3.1
2023-05-17T10:21:23.278Z,3.5
2023-05-17T10:22:39.482Z,3.4
2023-05-17T10:23:55.665Z,3.2
2023-05-17T10:26:28.049Z,3.2
2023-05-17T10:27:44.251Z,3.2
2023-05-17T10:30:15.681Z,3.1
2023-05-17T10:31:31.859Z,3.5
2023-05-17T10:32:48.064Z,3.3
2023-05-17T10:34:04.259Z,2.7
2023-05-17T10:35:20.442Z,3.5
2023-05-17T10:36:36.687Z,3.3
2023-05-17T10:37:52.815Z,3.1
2023-05-17T10:39:09.029Z,3.4
2023-05-17T10:40:25.215Z,2.7
2023-05-17T10:41:41.405Z,3.1
2023-05-17T10:42:57.597Z,3.1
2023-05-17T10:44:13.777Z,3.2
2023-05-17T10:45:29.025Z,3
2023-05-17T10:46:45.222Z,3.4
2023-05-17T10:49:17.599Z,3.8
2023-05-17T10:50:33.783Z,3.2
2023-05-17T10:51:49.987Z,2.8
2023-05-17T10:53:06.163Z,3.3
2023-05-17T10:55:38.607Z,3.1
2023-05-17T10:56:54.738Z,3.3
2023-05-17T10:58:10.941Z,3.6
2023-05-17T11:01:59.514Z,3.7
2023-05-17T11:04:30.943Z,2.9
2023-05-17T11:05:47.133Z,2.8
2023-05-17T11:08:19.513Z,3.1
2023-05-17T11:09:35.706Z,3.2
2023-05-17T11:10:51.895Z,2.9
2023-05-17T11:12:08.080Z,3.4
2023-05-17T11:13:24.286Z,3.2
2023-05-17T11:14:40.529Z,3.1
2023-05-17T11:15:56.670Z,2.8
2023-05-17T11:19:45.235Z,2.9
2023-05-17T11:21:00.477Z,2.9
2023-05-17T11:22:16.726Z,3.2
2023-05-17T11:27:21.432Z,3.3
2023-05-17T11:29:53.808Z,3.5
2023-05-17T11:31:10.014Z,3.9
2023-05-17T11:32:26.205Z,3.5
2023-05-17T11:33:42.391Z,3.7
2023-05-17T11:36:14.774Z,3.8
2023-05-17T11:37:31.084Z,3.4
2023-05-17T11:38:47.272Z,3.3
2023-05-17T11:42:35.855Z,4.2
2023-05-17T11:43:52.044Z,4.1
2023-05-17T11:47:40.630Z,4.3
2023-05-17T11:48:56.807Z,3.2
2023-05-17T11:50:13.017Z,3.2
2023-05-17T11:52:45.396Z,4
2023-05-17T11:54:00.622Z,3.2
2023-05-17T11:55:16.816Z,3.9
2023-05-17T11:56:33.013Z,3.7
2023-05-17T11:57:49.211Z,3.8
2023-05-17T12:00:21.644Z,3.1
2023-05-17T12:01:37.767Z,3.2
2023-05-17T12:02:53.966Z,3.4
2023-05-17T12:05:26.358Z,3.3
2023-05-17T12:06:42.538Z,3.9
2023-05-17T12:07:58.732Z,3
2023-05-17T12:09:14.928Z,3.4
2023-05-17T12:10:30.159Z,3.1
2023-05-17T12:11:46.352Z,3.3
2023-05-17T12:13:02.545Z,3.5
2023-05-17T12:15:34.942Z,3.3
2023-05-17T12:18:07.321Z,3
2023-05-17T12:19:23.566Z,3.3
2023-05-17T12:20:39.700Z,3.3
2023-05-17T12:21:55.895Z,3.4
2023-05-17T12:24:28.272Z,3.1
2023-05-17T12:27:00.658Z,3.5
2023-05-17T12:28:15.890Z,3.2
2023-05-17T12:29:32.087Z,2.6
2023-05-17T12:30:48.338Z,3.3
2023-05-17T12:32:04.467Z,3.1
2023-05-17T12:34:36.842Z,3.3
2023-05-17T12:35:53.050Z,2.7
2023-05-17T12:38:25.426Z,3.3
2023-05-17T12:39:41.610Z,3.2
2023-05-17T12:40:57.810Z,3
2023-05-17T12:42:13.996Z,3.1
2023-05-17T12:43:30.189Z,3.2
2023-05-17T12:44:45.428Z,2.7
2023-05-17T12:46:01.614Z,3.3
2023-05-17T12:47:17.808Z,3
2023-05-17T12:49:50.260Z,3.1
2023-05-17T12:51:06.393Z,3.2
2023-05-17T12:52:21.654Z,2.8
2023-05-17T12:53:37.844Z,3.1
2023-05-17T12:57:26.479Z,3.1
2023-05-17T12:58:42.614Z,2.9
2023-05-17T13:01:14.988Z,3.5
2023-05-17T13:03:47.386Z,2.7
2023-05-17T13:05:03.630Z,2.9
2023-05-17T13:06:19.755Z,2.8
2023-05-17T13:07:35.955Z,2.7
2023-05-17T13:08:52.261Z,2.7
2023-05-17T13:10:08.460Z,2.8
2023-05-17T13:11:24.649Z,3
2023-05-17T13:12:40.837Z,2.7
2023-05-17T13:13:57.034Z,2.7
2023-05-17T13:15:13.224Z,2.8
2023-05-17T13:16:29.476Z,2.5
2023-05-17T13:17:45.614Z,2.6
2023-05-17T13:19:01.794Z,3.3
2023-05-17T13:21:34.173Z,2.5
2023-05-17T13:22:50.366Z,2.5
2023-05-17T13:24:06.559Z,2.6
2023-05-17T13:26:38.948Z,2.7
2023-05-17T13:27:55.254Z,2.6
2023-05-17T13:30:27.635Z,2.5
2023-05-17T13:33:00.022Z,2.7
2023-05-17T13:34:16.223Z,2.7
2023-05-17T13:35:32.471Z,2.9
2023-05-17T13:36:48.600Z,2.7
2023-05-17T13:38:04.800Z,2.5
2023-05-17T13:39:20.984Z,3.2
2023-05-17T13:41:53.358Z,2.5
2023-05-17T13:43:09.553Z,2.4
2023-05-17T13:44:25.741Z,2.1
2023-05-17T13:45:40.994Z,2.9
2023-05-17T13:46:57.179Z,3
2023-05-17T13:48:13.376Z,2.7
2023-05-17T13:49:29.573Z,2.6
2023-05-17T13:50:45.756Z,3
2023-05-17T13:52:01.943Z,3
2023-05-17T13:53:18.148Z,3.6
2023-05-17T13:54:34.392Z,2.7
2023-05-17T13:55:50.522Z,2.6
2023-05-17T13:58:22.909Z,3.3
2023-05-17T14:00:55.292Z,3.2
2023-05-17T14:02:11.541Z,2.9
2023-05-17T14:04:43.864Z,3.2
2023-05-17T14:05:59.164Z,2.9
2023-05-17T14:07:15.282Z,2.8
2023-05-17T14:11:03.875Z,2.8
2023-05-17T14:12:20.055Z,2.6
2023-05-17T14:16:08.629Z,2.9
2023-05-17T14:18:41.021Z,2.8
2023-05-17T14:23:45.777Z,2.9
2023-05-17T14:25:02.036Z,2.9
2023-05-17T14:30:06.741Z,2.6
2023-05-17T14:32:39.185Z,2.7
2023-05-17T14:35:11.508Z,2.5
2023-05-17T14:41:31.499Z,2.4
2023-05-17T14:44:03.957Z,2.7
2023-05-17T14:45:20.076Z,2.5
2023-05-17T14:46:36.275Z,2.5
2023-05-17T14:51:41.106Z,2.5
2023-05-17T14:56:45.796Z,2.7
2023-05-17T14:59:17.302Z,2.8
2023-05-17T15:03:05.878Z,2.5
2023-05-17T15:09:26.777Z,2.3
2023-05-17T15:10:43.027Z,2.3
2023-05-17T15:15:47.735Z,2.6
2023-05-17T15:18:19.224Z,2.5
2023-05-17T15:19:35.354Z,2.3
2023-05-17T15:20:51.550Z,2.3
2023-05-17T15:22:07.798Z,2.1
2023-05-17T15:23:23.927Z,2.5
2023-05-17T15:24:40.105Z,2.4
2023-05-17T15:25:56.300Z,2.3
2023-05-17T15:27:12.490Z,2.4
2023-05-17T15:29:44.948Z,2.4
2023-05-17T15:31:01.068Z,2.3
2023-05-17T15:32:17.264Z,2.3
2023-05-17T15:34:49.657Z,2.1
2023-05-17T15:37:21.145Z,2.2
2023-05-17T15:38:37.336Z,2.2
2023-05-17T15:41:09.719Z,2.1
2023-05-17T15:43:42.041Z,2.1
2023-05-17T15:44:58.236Z,2.2
2023-05-17T15:48:46.795Z,1.9
2023-05-17T15:50:02.994Z,2.3
2023-05-17T15:51:19.189Z,2.3
2023-05-17T15:53:50.609Z,2.3
2023-05-17T15:55:06.801Z,2.2
2023-05-17T15:58:55.000Z,2
2023-05-17T16:00:11.640Z,2.2
2023-05-17T16:01:27.772Z,1.9
2023-05-17T16:02:43.952Z,1.8
2023-05-17T16:05:16.330Z,2.2
2023-05-17T16:06:32.525Z,1.7
2023-05-17T16:10:21.101Z,2
2023-05-17T16:12:52.532Z,2
2023-05-17T16:14:08.716Z,2.3
2023-05-17T16:16:41.117Z,2.2
2023-05-17T16:19:13.482Z,2.2
2023-05-17T16:24:18.257Z,1.9
2023-05-17T16:25:34.439Z,1.8
2023-05-17T16:26:50.649Z,2
2023-05-17T16:28:06.836Z,2
2023-05-17T16:29:22.071Z,1.9
2023-05-17T16:30:38.268Z,1.8
2023-05-17T16:31:54.449Z,1.9
2023-05-17T16:33:10.635Z,1.9
2023-05-17T16:34:26.906Z,2.2
2023-05-17T16:38:15.405Z,1.7
2023-05-17T16:39:31.612Z,2
2023-05-17T16:40:47.789Z,2.1
2023-05-17T16:43:20.167Z,2
2023-05-17T16:44:36.359Z,1.7
2023-05-17T16:45:51.598Z,2.1
2023-05-17T16:49:40.173Z,2
2023-05-17T16:52:12.571Z,1.9
2023-05-17T16:53:28.754Z,2.1
2023-05-17T16:56:01.136Z,2.2
2023-05-17T16:57:17.401Z,2.2
2023-05-17T16:58:33.523Z,2.4
2023-05-17T16:59:49.712Z,2.2
2023-05-17T17:01:05.908Z,1.8
2023-05-17T17:04:53.517Z,1.8
2023-05-17T17:06:09.717Z,1.8
2023-05-17T17:08:41.176Z,1.8
2023-05-17T17:09:56.426Z,1.8
2023-05-17T17:13:45.008Z,2
2023-05-17T17:15:01.188Z,2
2023-05-17T17:16:17.380Z,1.9
2023-05-17T17:20:05.952Z,1.9
2023-05-17T17:22:38.344Z,1.7
2023-05-17T17:23:54.607Z,2
2023-05-17T17:25:10.718Z,1.5
2023-05-17T17:26:25.962Z,1.8
2023-05-17T17:27:42.165Z,1.6
2023-05-17T17:28:58.345Z,1.9
2023-05-17T17:30:14.538Z,1.6
2023-05-17T17:34:03.120Z,1.6
2023-05-17T17:35:19.381Z,1.8
2023-05-17T17:37:51.701Z,1.8
2023-05-17T17:39:07.888Z,1.7
2023-05-17T17:40:24.076Z,1.5
2023-05-17T17:42:56.452Z,2.1
2023-05-17T17:44:11.689Z,1.6
2023-05-17T17:45:27.894Z,1.4
2023-05-17T17:46:44.070Z,1.6
2023-05-17T17:48:00.277Z,1.7
2023-05-17T17:49:16.462Z,1.4
2023-05-17T17:53:05.039Z,1.8
2023-05-17T17:54:21.237Z,1.7
2023-05-17T17:55:37.423Z,1.5
2023-05-17T17:58:09.799Z,1.9
2023-05-17T18:00:42.194Z,1.8
2023-05-17T18:01:57.424Z,1.6
2023-05-17T18:03:13.622Z,1.5
2023-05-17T18:04:29.812Z,1.4
2023-05-17T18:05:45.990Z,1.5
2023-05-17T18:07:02.198Z,1.6
2023-05-17T18:08:18.382Z,1.5
2023-05-17T18:09:34.579Z,1.9
2023-05-17T18:10:50.775Z,1.7
2023-05-17T18:12:06.961Z,2
2023-05-17T18:13:23.143Z,2.1
2023-05-17T18:14:39.350Z,1.6
2023-05-17T18:15:55.534Z,1.4
2023-05-17T18:17:11.729Z,1.5
2023-05-17T18:18:26.965Z,1.7
2023-05-17T18:19:43.146Z,1.8
2023-05-17T18:20:59.346Z,1.6
2023-05-17T18:22:15.526Z,1.6
2023-05-17T18:23:31.729Z,2
2023-05-17T18:24:46.997Z,1.6
2023-05-17T18:26:02.238Z,1.6
2023-05-17T18:27:18.419Z,1.5
2023-05-17T18:28:34.695Z,1.8
2023-05-17T18:29:50.800Z,1.6
2023-05-17T18:31:07.008Z,1.7
2023-05-17T18:32:23.197Z,1.7
2023-05-17T18:34:55.573Z,1.4
2023-05-17T18:36:11.778Z,1.8
2023-05-17T18:38:44.159Z,1.7
2023-05-17T18:39:59.497Z,1.3
2023-05-17T18:41:14.664Z,1.7
2023-05-17T18:43:47.036Z,1.4
2023-05-17T18:45:03.247Z,1.6
2023-05-17T18:46:19.418Z,1.6
2023-05-17T18:48:51.804Z,1.4
2023-05-17T18:50:07.997Z,1.7
2023-05-17T18:51:24.183Z,1.4
2023-05-17T18:52:40.391Z,1.7
2023-05-17T18:53:56.565Z,1.6
2023-05-17T18:55:12.770Z,1.7
2023-05-17T18:56:28.969Z,1.6
2023-05-17T18:57:44.189Z,1.5
2023-05-17T18:59:00.466Z,1.7
2023-05-17T19:00:16.586Z,1.4
2023-05-17T19:01:32.782Z,1.4
2023-05-17T19:02:48.972Z,1.5
2023-05-17T19:04:05.166Z,1.7
2023-05-17T19:05:21.357Z,1.8
2023-05-17T19:06:37.536Z,1.6
2023-05-17T19:09:09.920Z,1.5
2023-05-17T19:10:26.190Z,1.4
2023-05-17T19:11:42.303Z,1.4
2023-05-17T19:12:58.488Z,1.3
2023-05-17T19:14:13.745Z,1.5
2023-05-17T19:15:28.999Z,1.5
2023-05-17T19:16:44.236Z,1.6
2023-05-17T19:18:00.513Z,1.7
2023-05-17T19:19:16.621Z,1.5
2023-05-17T19:20:32.826Z,1.4
2023-05-17T19:21:49.014Z,1.3
2023-05-17T19:23:05.202Z,1.6
2023-05-17T19:24:21.391Z,1.6
2023-05-17T19:25:37.662Z,1.6
2023-05-17T19:26:53.774Z,1.5
2023-05-17T19:29:25.315Z,1.4
2023-05-17T19:30:40.527Z,1.4
2023-05-17T19:31:56.704Z,1.3
2023-05-17T19:33:12.902Z,1.5
2023-05-17T19:34:29.094Z,1.7
2023-05-17T19:35:45.278Z,1.5
2023-05-17T19:37:01.477Z,1.6
2023-05-17T19:39:33.864Z,1.5
2023-05-17T19:40:49.123Z,1.4
2023-05-17T19:42:04.380Z,1.8
2023-05-17T19:43:20.560Z,1.6
2023-05-17T19:44:36.789Z,1.6
2023-05-17T19:47:09.148Z,1.5
2023-05-17T19:48:25.327Z,1.2
2023-05-17T19:49:41.522Z,1.3
2023-05-17T19:50:57.705Z,1.7
2023-05-17T19:52:13.906Z,1.8
2023-05-17T19:54:46.297Z,1.6
2023-05-17T19:56:02.485Z,1.4
2023-05-17T19:58:34.855Z,1.3
2023-05-17T19:59:51.179Z,1.4
2023-05-17T20:01:07.367Z,1.5
2023-05-17T20:02:23.553Z,1.4
2023-05-17T20:03:39.783Z,1.4
2023-05-17T20:04:55.943Z,1.7
2023-05-17T20:06:12.133Z,1.4
2023-05-17T20:07:28.358Z,1.4
2023-05-17T20:08:44.517Z,1.2
2023-05-17T20:10:00.701Z,1.4
2023-05-17T20:11:16.909Z,1.5
2023-05-17T20:12:33.089Z,1.6
2023-05-17T20:13:49.287Z,1.6
2023-05-17T20:15:05.507Z,1.3
2023-05-17T20:16:20.720Z,1.5
2023-05-17T20:17:36.913Z,1.5
2023-05-17T20:18:53.097Z,1.6
2023-05-17T20:20:09.290Z,1.4
2023-05-17T20:21:24.556Z,1.4
2023-05-17T20:23:55.987Z,1.5
2023-05-17T20:25:12.171Z,1.3
2023-05-17T20:26:28.406Z,1.4
2023-05-17T20:27:44.562Z,1.5
2023-05-17T20:29:00.752Z,1.2
2023-05-17T20:34:05.555Z,1.5
2023-05-17T20:36:37.911Z,1.5
2023-05-17T20:37:54.090Z,1.4
2023-05-17T20:40:25.518Z,1.6
2023-05-17T20:42:56.976Z,1.5
2023-05-17T20:44:12.262Z,1.5
2023-05-17T20:45:27.486Z,1.3
2023-05-17T20:46:43.682Z,1.4
2023-05-17T20:47:59.877Z,1.3
2023-05-17T20:49:16.074Z,1.3
2023-05-17T20:51:48.458Z,1.2
2023-05-17T20:53:04.680Z,1.5
2023-05-17T20:56:53.209Z,1.5
2023-05-17T20:58:09.410Z,1.3
2023-05-17T20:59:25.596Z,1.4
2023-05-17T21:01:57.984Z,1.6
2023-05-17T21:03:13.214Z,1.6
2023-05-17T21:04:29.422Z,1.6
2023-05-17T21:05:45.604Z,1.3
2023-05-17T21:07:01.792Z,1.5
2023-05-17T21:08:17.983Z,1.5
2023-05-17T21:09:34.176Z,1.5
2023-05-17T21:10:50.377Z,1.5
2023-05-17T21:12:06.600Z,1.4
2023-05-17T21:14:38.940Z,1.4
2023-05-17T21:15:55.135Z,1.3
2023-05-17T21:17:11.328Z,1.3
2023-05-17T21:18:27.530Z,1.3
2023-05-17T21:19:42.761Z,1.3
2023-05-17T21:20:58.946Z,1.4
2023-05-17T21:22:15.152Z,1.1
2023-05-17T21:23:31.336Z,1.2
2023-05-17T21:24:46.587Z,1.2
2023-05-17T21:26:02.776Z,1.4
2023-05-17T21:27:18.975Z,1.4
2023-05-17T21:28:34.237Z,1.2
2023-05-17T21:29:50.445Z,1.5
2023-05-17T21:31:05.715Z,1.3
2023-05-17T21:32:21.876Z,1.4